createdAt,value
2023-07-05T00:02:11.805Z,9.63
2023-07-05T00:04:40.216Z,8.40
2023-07-05T00:07:08.744Z,10.27
2023-07-05T00:09:38.521Z,10.83
2023-07-05T00:12:08.132Z,7.17
2023-07-05T00:14:36.676Z,10.47
2023-07-05T00:17:05.443Z,6.73
2023-07-05T00:19:33.820Z,5.80
2023-07-05T00:22:02.258Z,5.97
2023-07-05T00:24:30.653Z,7.63
2023-07-05T00:27:00.314Z,6.50
2023-07-05T00:29:28.830Z,5.80
2023-07-05T00:31:57.237Z,11.80
2023-07-05T00:34:25.637Z,10.33
2023-07-05T00:36:54.118Z,7.90
2023-07-05T00:39:22.553Z,6.03
2023-07-05T00:41:50.908Z,7.97
2023-07-05T00:44:20.937Z,6.87
2023-07-05T00:46:51.065Z,9.80
2023-07-05T00:49:21.573Z,5.63
2023-07-05T00:51:54.063Z,6.80
2023-07-05T00:54:25.563Z,5.57
2023-07-05T00:56:55.750Z,14.53
2023-07-05T00:59:27.062Z,9.23
2023-07-05T01:02:02.658Z,9.23
2023-07-05T01:04:33.927Z,12.33
2023-07-05T01:07:02.430Z,7.30
2023-07-05T01:09:32.373Z,11.00
2023-07-05T01:12:11.107Z,11.43
2023-07-05T01:14:56.056Z,6.50
2023-07-05T01:17:29.043Z,6.00
2023-07-05T01:20:10.802Z,6.57
2023-07-05T01:23:31.898Z,9.80
2023-07-05T01:26:47.877Z,6.07
2023-07-05T01:29:48.636Z,6.93
2023-07-05T01:32:19.363Z,6.47
2023-07-05T01:34:52.265Z,6.53
2023-07-05T01:37:30.475Z,5.43
2023-07-05T01:39:58.846Z,9.50
2023-07-05T01:42:30.926Z,6.03
2023-07-05T01:44:59.305Z,12.00
2023-07-05T01:47:33.542Z,10.80
2023-07-05T01:50:11.793Z,14.00
2023-07-05T01:52:46.300Z,9.57
2023-07-05T01:55:17.537Z,6.67
2023-07-05T01:57:49.291Z,5.47
2023-07-05T02:00:19.867Z,8.07
2023-07-05T02:02:52.819Z,12.77
2023-07-05T02:05:22.457Z,5.53
2023-07-05T02:07:50.922Z,9.80
2023-07-05T02:10:19.447Z,5.03
2023-07-05T02:12:47.849Z,10.43
2023-07-05T02:15:16.370Z,4.87
2023-07-05T02:17:44.859Z,6.17
2023-07-05T02:20:15.113Z,5.67
2023-07-05T02:22:43.524Z,5.37
2023-07-05T02:25:11.987Z,8.00
2023-07-05T02:27:40.495Z,8.30
2023-07-05T02:30:11.108Z,14.90
2023-07-05T02:32:39.577Z,11.00
2023-07-05T02:35:09.682Z,7.80
2023-07-05T02:37:39.456Z,7.77
2023-07-05T02:40:10.005Z,11.20
2023-07-05T02:42:38.355Z,6.00
2023-07-05T02:45:08.318Z,5.53
2023-07-05T02:47:36.775Z,11.00
2023-07-05T02:50:05.966Z,6.70
2023-07-05T02:52:34.359Z,9.27
2023-07-05T02:55:04.137Z,10.67
2023-07-05T02:57:32.586Z,8.73
2023-07-05T03:00:00.991Z,8.77
2023-07-05T03:02:31.690Z,9.10
2023-07-05T03:05:09.191Z,6.20
2023-07-05T03:07:37.620Z,7.20
2023-07-05T03:10:08.993Z,9.53
2023-07-05T03:12:37.357Z,5.13
2023-07-05T03:15:07.819Z,7.70
2023-07-05T03:17:36.302Z,4.97
2023-07-05T03:20:05.133Z,7.73
2023-07-05T03:22:33.502Z,8.90
2023-07-05T03:25:01.887Z,6.13
2023-07-05T03:27:31.760Z,9.73
2023-07-05T03:30:00.120Z,6.13
2023-07-05T03:32:30.642Z,6.13
2023-07-05T03:35:01.396Z,7.50
2023-07-05T03:37:30.533Z,11.20
2023-07-05T03:39:59.091Z,6.67
2023-07-05T03:42:27.500Z,5.80
2023-07-05T03:44:57.271Z,6.83
2023-07-05T03:47:25.660Z,5.87
2023-07-05T03:49:54.035Z,6.03
2023-07-05T03:52:22.438Z,10.00
2023-07-05T03:54:50.856Z,6.67
2023-07-05T03:57:19.223Z,9.50
2023-07-05T03:59:48.836Z,4.87
2023-07-05T04:02:18.647Z,7.77
2023-07-05T04:04:47.008Z,8.43
2023-07-05T04:07:15.332Z,7.40
2023-07-05T04:09:44.077Z,5.10
2023-07-05T04:12:13.364Z,6.87
2023-07-05T04:14:41.738Z,5.70
2023-07-05T04:17:10.089Z,9.73
2023-07-05T04:19:39.878Z,6.07
2023-07-05T04:22:08.335Z,5.80
2023-07-05T04:24:36.808Z,8.70
2023-07-05T04:27:05.514Z,8.40
2023-07-05T04:29:35.286Z,5.63
2023-07-05T04:32:03.613Z,8.87
2023-07-05T04:34:31.964Z,5.20
2023-07-05T04:37:01.774Z,6.07
2023-07-05T04:39:30.192Z,7.93
2023-07-05T04:41:58.560Z,17.17
2023-07-05T04:44:26.951Z,11.03
2023-07-05T04:46:55.294Z,5.13
2023-07-05T04:49:23.694Z,9.57
2023-07-05T04:51:52.033Z,5.23
2023-07-05T04:54:21.832Z,6.67
2023-07-05T04:56:50.133Z,4.63
2023-07-05T04:59:20.679Z,6.53
2023-07-05T05:01:49.549Z,11.13
2023-07-05T05:04:18.156Z,10.33
2023-07-05T05:06:46.521Z,7.37
2023-07-05T05:09:14.941Z,3.77
2023-07-05T05:11:44.743Z,6.07
2023-07-05T05:14:13.115Z,6.10
2023-07-05T05:16:41.532Z,4.73
2023-07-05T05:19:09.960Z,4.50
2023-07-05T05:21:38.379Z,9.47
2023-07-05T05:24:07.707Z,4.77
2023-07-05T05:26:36.091Z,9.00
2023-07-05T05:29:05.868Z,4.40
2023-07-05T05:31:34.333Z,6.87
2023-07-05T05:34:03.567Z,13.27
2023-07-05T05:36:31.980Z,6.77
2023-07-05T05:39:00.415Z,6.33
2023-07-05T05:41:28.773Z,8.63
2023-07-05T05:43:57.157Z,6.93
2023-07-05T05:46:27.013Z,7.47
2023-07-05T05:48:55.510Z,5.63
2023-07-05T05:51:23.902Z,7.57
2023-07-05T05:53:52.271Z,6.77
2023-07-05T05:56:21.779Z,9.63
2023-07-05T05:58:50.253Z,5.20
2023-07-05T06:01:21.061Z,11.67
2023-07-05T06:03:51.062Z,6.73
2023-07-05T06:06:19.553Z,9.70
2023-07-05T06:08:47.914Z,5.37
2023-07-05T06:11:16.446Z,7.10
2023-07-05T06:13:44.920Z,10.00
2023-07-05T06:16:14.941Z,7.43
2023-07-05T06:18:44.862Z,13.57
2023-07-05T06:21:14.823Z,7.00
2023-07-05T06:23:43.244Z,11.27
2023-07-05T06:26:11.907Z,11.00
2023-07-05T06:28:40.392Z,8.90
2023-07-05T06:31:09.127Z,10.00
2023-07-05T06:33:37.738Z,16.67
2023-07-05T06:36:07.313Z,21.63
2023-07-05T06:38:37.104Z,9.30
2023-07-05T06:41:05.945Z,13.30
2023-07-05T06:43:34.383Z,7.63
2023-07-05T06:46:02.919Z,9.87
2023-07-05T06:48:31.298Z,7.60
2023-07-05T06:51:00.807Z,11.60
2023-07-05T06:53:47.099Z,15.80
2023-07-05T06:56:19.124Z,20.10
2023-07-05T06:58:49.527Z,9.67
2023-07-05T07:01:17.980Z,11.00
2023-07-05T07:03:46.425Z,11.00
2023-07-05T07:06:14.779Z,19.30
2023-07-05T07:08:43.201Z,10.90
2023-07-05T07:11:13.183Z,11.50
2023-07-05T07:13:43.855Z,10.27
2023-07-05T07:16:13.823Z,16.90
2023-07-05T07:18:44.091Z,13.30
2023-07-05T07:21:12.629Z,10.07
2023-07-05T07:23:41.281Z,17.13
2023-07-05T07:26:11.348Z,15.73
2023-07-05T07:28:39.830Z,14.53
2023-07-05T07:31:13.742Z,18.10
2023-07-05T07:33:42.205Z,22.67
2023-07-05T07:36:12.357Z,12.90
2023-07-05T07:38:41.213Z,16.00
2023-07-05T07:41:15.506Z,14.10
2023-07-05T07:43:44.012Z,12.87
2023-07-05T07:46:15.226Z,13.30
2023-07-05T07:48:44.978Z,12.70
2023-07-05T07:51:23.570Z,19.07
2023-07-05T07:54:01.815Z,13.23
2023-07-05T07:56:30.321Z,17.47
2023-07-05T07:59:00.140Z,15.80
2023-07-05T08:01:33.290Z,15.43
2023-07-05T08:04:04.417Z,18.63
2023-07-05T08:06:35.003Z,14.77
2023-07-05T08:09:03.858Z,22.80
2023-07-05T08:11:32.259Z,17.77
2023-07-05T08:14:00.846Z,23.83
2023-07-05T08:16:30.776Z,17.80
2023-07-05T08:18:59.417Z,22.03
2023-07-05T08:21:27.770Z,16.77
2023-07-05T08:23:56.156Z,14.17
2023-07-05T08:26:24.729Z,17.23
2023-07-05T08:28:53.186Z,20.13
2023-07-05T08:31:21.607Z,17.40
2023-07-05T08:33:51.565Z,20.03
2023-07-05T08:36:35.204Z,22.93
2023-07-05T08:39:04.876Z,20.57
2023-07-05T08:41:43.749Z,20.67
2023-07-05T08:44:18.763Z,20.03
2023-07-05T08:46:49.912Z,16.87
2023-07-05T08:49:26.110Z,19.70
2023-07-05T08:51:54.537Z,15.10
2023-07-05T08:54:23.016Z,15.00
2023-07-05T08:56:53.633Z,15.53
2023-07-05T08:59:27.704Z,14.73
2023-07-05T09:01:58.306Z,14.40
2023-07-05T09:04:29.537Z,13.63
2023-07-05T09:07:02.936Z,12.80
2023-07-05T09:09:46.688Z,12.50
2023-07-05T09:12:22.622Z,18.70
2023-07-05T09:15:14.436Z,15.03
2023-07-05T09:17:55.380Z,11.07
2023-07-05T09:20:53.663Z,11.20
2023-07-05T09:23:25.181Z,10.53
2023-07-05T09:25:56.956Z,11.90
2023-07-05T09:28:29.688Z,10.63
2023-07-05T09:31:00.354Z,12.83
2023-07-05T09:33:33.558Z,11.00
2023-07-05T09:36:06.425Z,9.63
2023-07-05T09:38:37.933Z,11.27
2023-07-05T09:41:09.020Z,11.60
2023-07-05T09:43:37.802Z,11.57
2023-07-05T09:46:08.822Z,17.90
2023-07-05T09:48:43.940Z,12.80
2023-07-05T09:51:13.783Z,12.77
2023-07-05T09:53:44.998Z,12.00
2023-07-05T09:56:14.671Z,11.70
2023-07-05T09:58:44.733Z,21.40
2023-07-05T10:01:16.027Z,13.70
2023-07-05T10:03:56.306Z,17.53
2023-07-05T10:06:27.686Z,14.23
2023-07-05T10:08:57.113Z,11.90
2023-07-05T10:11:27.595Z,8.50
2023-07-05T10:14:14.762Z,8.63
2023-07-05T10:17:07.771Z,7.37
2023-07-05T10:19:42.068Z,14.13
2023-07-05T10:22:16.763Z,8.13
2023-07-05T10:24:47.877Z,6.10
2023-07-05T10:27:24.007Z,5.43
2023-07-05T10:29:52.992Z,7.07
2023-07-05T10:32:21.849Z,13.13
2023-07-05T10:34:52.023Z,6.83
2023-07-05T10:37:31.049Z,4.97
2023-07-05T10:39:59.487Z,4.97
2023-07-05T10:42:27.874Z,3.37
2023-07-05T10:44:56.260Z,4.03
2023-07-05T10:47:24.693Z,4.30
2023-07-05T10:49:54.020Z,5.23
2023-07-05T10:52:23.490Z,5.57
2023-07-05T10:55:01.570Z,3.90
2023-07-05T10:57:34.723Z,4.40
2023-07-05T11:00:29.463Z,9.83
2023-07-05T11:03:04.198Z,3.97
2023-07-05T11:05:39.116Z,3.63
2023-07-05T11:08:27.591Z,3.30
2023-07-05T11:10:58.944Z,2.70
2023-07-05T11:13:29.259Z,3.83
2023-07-05T11:15:59.801Z,3.33
2023-07-05T11:18:30.251Z,3.33
2023-07-05T11:21:00.994Z,3.43
2023-07-05T11:23:55.142Z,2.83
2023-07-05T11:26:42.397Z,2.40
2023-07-05T11:29:48.368Z,2.50
2023-07-05T11:32:17.108Z,2.70
2023-07-05T11:34:55.431Z,4.97
2023-07-05T11:37:53.305Z,2.20
2023-07-05T11:41:01.875Z,2.90
2023-07-05T11:43:42.566Z,2.57
2023-07-05T11:46:39.747Z,2.97
2023-07-05T11:49:28.936Z,2.23
2023-07-05T11:52:08.808Z,5.47
2023-07-05T11:55:06.690Z,6.67
2023-07-05T11:57:38.786Z,6.63
2023-07-05T12:00:18.746Z,3.10
2023-07-05T12:02:55.828Z,4.83
2023-07-05T12:05:26.867Z,2.43
2023-07-05T12:07:59.202Z,13.97
2023-07-05T12:10:29.460Z,2.67
2023-07-05T12:12:57.894Z,3.10
2023-07-05T12:15:27.749Z,5.60
2023-07-05T12:17:56.155Z,2.50
2023-07-05T12:20:30.598Z,2.50
2023-07-05T12:22:59.887Z,5.73
2023-07-05T12:25:28.832Z,2.77
2023-07-05T12:27:57.598Z,2.57
2023-07-05T12:30:30.000Z,2.03
2023-07-05T12:33:00.306Z,4.53
2023-07-05T12:35:29.703Z,1.90
2023-07-05T12:37:59.612Z,2.30
2023-07-05T12:40:31.484Z,3.87
2023-07-05T12:43:01.471Z,2.30
2023-07-05T12:45:32.539Z,2.50
2023-07-05T12:48:14.557Z,1.43
2023-07-05T12:50:43.310Z,4.13
2023-07-05T12:53:17.444Z,2.00
2023-07-05T12:55:55.996Z,3.80
2023-07-05T12:58:24.875Z,4.30
2023-07-05T13:00:58.035Z,2.77
2023-07-05T13:03:27.761Z,5.53
2023-07-05T13:05:56.235Z,1.10
2023-07-05T13:08:25.548Z,2.63
2023-07-05T13:10:54.253Z,1.30
2023-07-05T13:13:27.280Z,1.47
2023-07-05T13:15:57.295Z,2.23
2023-07-05T13:18:31.078Z,1.90
2023-07-05T13:21:15.058Z,2.47
2023-07-05T13:23:48.276Z,1.77
2023-07-05T13:26:31.505Z,4.80
2023-07-05T13:29:00.918Z,2.10
2023-07-05T13:31:30.732Z,3.10
2023-07-05T13:33:59.815Z,4.53
2023-07-05T13:37:02.752Z,2.00
2023-07-05T13:39:31.234Z,1.43
2023-07-05T13:42:03.252Z,5.03
2023-07-05T13:44:31.901Z,3.43
2023-07-05T13:47:02.683Z,2.97
2023-07-05T13:49:31.202Z,6.20
2023-07-05T13:52:01.349Z,7.43
2023-07-05T13:54:30.804Z,5.10
2023-07-05T13:56:59.231Z,4.50
2023-07-05T13:59:27.797Z,4.47
2023-07-05T14:01:57.124Z,2.93
2023-07-05T14:04:27.899Z,10.33
2023-07-05T14:06:56.412Z,2.20
2023-07-05T14:09:24.815Z,2.57
2023-07-05T14:11:53.226Z,3.33
2023-07-05T14:14:21.539Z,3.17
2023-07-05T14:16:49.886Z,2.43
2023-07-05T14:19:18.291Z,2.87
2023-07-05T14:21:49.698Z,6.50
2023-07-05T14:24:18.195Z,6.80
2023-07-05T14:26:47.024Z,2.53
2023-07-05T14:29:15.534Z,2.20
2023-07-05T14:31:45.110Z,4.70
2023-07-05T14:34:15.900Z,3.37
2023-07-05T14:36:44.286Z,2.90
2023-07-05T14:39:14.165Z,3.30
2023-07-05T14:41:42.509Z,4.00
2023-07-05T14:44:11.010Z,4.67
2023-07-05T14:46:39.786Z,8.63
2023-07-05T14:49:08.259Z,26.83
2023-07-05T14:51:36.677Z,7.80
2023-07-05T14:54:05.374Z,2.50
2023-07-05T14:56:35.118Z,2.20
2023-07-05T14:59:03.552Z,2.70
2023-07-05T15:01:32.019Z,2.50
2023-07-05T15:04:00.783Z,3.53
2023-07-05T15:06:29.154Z,3.20
2023-07-05T15:08:57.643Z,2.70
2023-07-05T15:11:27.338Z,2.60
2023-07-05T15:13:57.231Z,2.73
2023-07-05T15:16:25.760Z,6.70
2023-07-05T15:18:55.047Z,2.50
2023-07-05T15:21:24.492Z,4.00
2023-07-05T15:23:53.107Z,2.73
2023-07-05T15:26:21.750Z,3.77
2023-07-05T15:28:50.504Z,2.20
2023-07-05T15:31:21.414Z,2.23
2023-07-05T15:33:49.897Z,2.40
2023-07-05T15:36:19.718Z,5.23
2023-07-05T15:38:49.528Z,2.57
2023-07-05T15:41:18.636Z,2.33
2023-07-05T15:43:47.096Z,2.63
2023-07-05T15:46:15.663Z,7.73
2023-07-05T15:48:45.661Z,2.00
2023-07-05T15:51:15.959Z,3.40
2023-07-05T15:53:45.110Z,2.00
2023-07-05T15:56:13.510Z,2.40
2023-07-05T15:58:44.522Z,1.40
2023-07-05T16:01:22.246Z,2.67
2023-07-05T16:03:52.369Z,2.20
2023-07-05T16:06:20.779Z,1.67
2023-07-05T16:08:49.611Z,1.53
2023-07-05T16:11:19.627Z,1.30
2023-07-05T16:13:48.153Z,1.37
2023-07-05T16:16:16.616Z,4.00
2023-07-05T16:18:45.105Z,1.20
2023-07-05T16:21:26.833Z,1.67
2023-07-05T16:23:55.316Z,2.77
2023-07-05T16:26:23.706Z,1.50
2023-07-05T16:28:52.662Z,1.63
2023-07-05T16:31:21.133Z,1.20
2023-07-05T16:33:49.698Z,1.23
2023-07-05T16:36:18.174Z,6.93
2023-07-05T16:38:48.123Z,1.27
2023-07-05T16:41:16.555Z,1.63
2023-07-05T16:43:44.951Z,1.33
2023-07-05T16:46:14.416Z,3.00
2023-07-05T16:48:43.845Z,1.63
2023-07-05T16:51:13.241Z,2.73
2023-07-05T16:53:42.540Z,2.97
2023-07-05T16:56:12.936Z,4.10
2023-07-05T16:58:41.317Z,1.87
2023-07-05T17:01:11.337Z,1.80
2023-07-05T17:03:41.808Z,1.13
2023-07-05T17:06:11.183Z,3.50
2023-07-05T17:08:40.340Z,2.10
2023-07-05T17:11:11.209Z,1.20
2023-07-05T17:13:39.657Z,3.10
2023-07-05T17:16:08.125Z,1.10
2023-07-05T17:18:36.688Z,0.97
2023-07-05T17:21:06.598Z,1.97
2023-07-05T17:23:35.524Z,1.27
2023-07-05T17:26:06.264Z,2.30
2023-07-05T17:28:37.391Z,2.20
2023-07-05T17:31:07.153Z,3.23
2023-07-05T17:33:35.639Z,2.00
2023-07-05T17:36:04.811Z,1.43
2023-07-05T17:38:34.738Z,1.17
2023-07-05T17:41:05.025Z,1.13
2023-07-05T17:43:33.470Z,2.60
2023-07-05T17:46:14.669Z,1.03
2023-07-05T17:48:43.095Z,6.03
2023-07-05T17:51:11.787Z,1.00
2023-07-05T17:53:40.179Z,3.40
2023-07-05T17:56:09.685Z,1.30
2023-07-05T17:58:38.093Z,7.23
2023-07-05T18:01:10.089Z,1.33
2023-07-05T18:03:40.783Z,1.00
2023-07-05T18:06:09.546Z,1.67
2023-07-05T18:08:37.972Z,1.80
2023-07-05T18:11:07.053Z,7.23
2023-07-05T18:13:37.735Z,1.30
2023-07-05T18:16:08.319Z,1.53
2023-07-05T18:18:36.775Z,11.23
2023-07-05T18:21:08.726Z,1.77
2023-07-05T18:23:38.283Z,1.40
2023-07-05T18:26:09.215Z,2.83
2023-07-05T18:28:37.650Z,1.10
2023-07-05T18:31:06.344Z,1.63
2023-07-05T18:33:36.180Z,1.40
2023-07-05T18:36:06.992Z,1.53
2023-07-05T18:38:35.626Z,1.93
2023-07-05T18:41:08.437Z,2.83
2023-07-05T18:43:36.898Z,1.40
2023-07-05T18:46:05.297Z,6.83
2023-07-05T18:48:35.195Z,1.37
2023-07-05T18:51:05.268Z,1.53
2023-07-05T18:53:33.759Z,1.23
2023-07-05T18:56:04.780Z,2.73
2023-07-05T18:58:33.989Z,1.30
2023-07-05T19:01:04.763Z,1.63
2023-07-05T19:03:33.563Z,1.07
2023-07-05T19:06:04.996Z,3.33
2023-07-05T19:08:36.508Z,3.23
2023-07-05T19:11:06.898Z,3.73
2023-07-05T19:13:35.509Z,1.60
2023-07-05T19:16:04.329Z,1.37
2023-07-05T19:18:33.968Z,2.20
2023-07-05T19:21:02.532Z,2.30
2023-07-05T19:23:30.914Z,3.17
2023-07-05T19:26:02.536Z,3.07
2023-07-05T19:28:32.639Z,1.97
2023-07-05T19:31:07.890Z,1.40
2023-07-05T19:33:36.434Z,4.07
2023-07-05T19:36:05.273Z,1.67
2023-07-05T19:38:34.291Z,1.83
2023-07-05T19:41:04.128Z,2.67
2023-07-05T19:43:32.634Z,4.77
2023-07-05T19:46:05.206Z,6.30
2023-07-05T19:48:33.988Z,2.63
2023-07-05T19:51:02.490Z,2.63
2023-07-05T19:53:30.905Z,1.83
2023-07-05T19:55:59.503Z,2.20
2023-07-05T19:58:29.279Z,1.97
2023-07-05T20:00:57.657Z,1.87
2023-07-05T20:03:26.575Z,4.63
2023-07-05T20:05:55.340Z,4.77
2023-07-05T20:08:24.078Z,7.63
2023-07-05T20:10:52.411Z,1.70
2023-07-05T20:13:21.782Z,2.00
2023-07-05T20:15:59.074Z,2.13
2023-07-05T20:18:27.869Z,2.40
2023-07-05T20:21:00.604Z,5.47
2023-07-05T20:23:36.590Z,2.03
2023-07-05T20:26:05.116Z,1.80
2023-07-05T20:28:33.620Z,1.50
2023-07-05T20:31:03.326Z,1.83
2023-07-05T20:33:33.460Z,1.63
2023-07-05T20:36:02.819Z,1.50
2023-07-05T20:38:32.522Z,4.73
2023-07-05T20:41:00.891Z,2.67
2023-07-05T20:43:29.294Z,2.80
2023-07-05T20:46:00.464Z,2.00
2023-07-05T20:48:30.293Z,2.53
2023-07-05T20:51:00.735Z,1.70
2023-07-05T20:53:29.147Z,2.47
2023-07-05T20:55:58.775Z,5.83
2023-07-05T20:58:29.600Z,1.23
2023-07-05T21:00:58.549Z,2.20
2023-07-05T21:03:28.849Z,2.00
2023-07-05T21:05:59.128Z,1.87
2023-07-05T21:08:29.506Z,1.93
2023-07-05T21:10:57.955Z,1.50
2023-07-05T21:13:26.303Z,2.73
2023-07-05T21:16:00.974Z,2.00
2023-07-05T21:18:30.507Z,3.40
2023-07-05T21:21:01.387Z,2.03
2023-07-05T21:23:29.928Z,3.70
2023-07-05T21:26:00.007Z,5.03
2023-07-05T21:28:28.410Z,2.53
2023-07-05T21:30:59.263Z,2.80
2023-07-05T21:33:27.943Z,3.37
2023-07-05T21:35:57.480Z,2.17
2023-07-05T21:38:28.142Z,2.57
2023-07-05T21:40:57.476Z,2.63
2023-07-05T21:43:27.531Z,2.10
2023-07-05T21:45:57.449Z,2.93
2023-07-05T21:48:30.130Z,5.40
2023-07-05T21:50:59.230Z,4.50
2023-07-05T21:53:29.040Z,2.93
2023-07-05T21:56:01.193Z,2.40
2023-07-05T21:58:30.480Z,2.00
2023-07-05T22:00:59.546Z,3.57
2023-07-05T22:03:28.168Z,3.70
2023-07-05T22:05:58.477Z,3.10
2023-07-05T22:08:28.784Z,2.20
2023-07-05T22:10:57.156Z,1.87
2023-07-05T22:13:25.964Z,2.20
2023-07-05T22:15:55.186Z,2.17
2023-07-05T22:18:23.790Z,2.50
2023-07-05T22:20:52.187Z,2.20
2023-07-05T22:23:22.362Z,2.40
2023-07-05T22:25:52.130Z,2.30
2023-07-05T22:28:20.521Z,2.33
2023-07-05T22:30:49.335Z,2.57
2023-07-05T22:33:17.692Z,7.23
2023-07-05T22:35:46.272Z,2.77
2023-07-05T22:38:14.763Z,2.57
2023-07-05T22:40:43.234Z,4.77
2023-07-05T22:43:12.965Z,2.13
2023-07-05T22:45:41.309Z,3.67
2023-07-05T22:48:09.692Z,4.20
2023-07-05T22:50:38.332Z,2.63
2023-07-05T22:53:06.709Z,4.17
2023-07-05T22:55:35.147Z,3.80
2023-07-05T22:58:03.749Z,3.17
2023-07-05T23:00:33.517Z,2.63
2023-07-05T23:03:02.117Z,2.20
2023-07-05T23:05:32.483Z,5.70
2023-07-05T23:08:01.239Z,3.60
2023-07-05T23:10:29.991Z,2.57
2023-07-05T23:12:58.378Z,4.37
2023-07-05T23:15:26.884Z,2.40
2023-07-05T23:17:58.000Z,2.90
2023-07-05T23:20:27.769Z,8.23
2023-07-05T23:22:56.168Z,2.30
2023-07-05T23:25:24.692Z,2.70
2023-07-05T23:27:53.107Z,5.80
2023-07-05T23:30:21.505Z,2.00
2023-07-05T23:32:50.055Z,2.40
2023-07-05T23:35:22.387Z,3.53
2023-07-05T23:37:50.868Z,2.10
2023-07-05T23:40:19.281Z,2.93
2023-07-05T23:42:47.765Z,4.10
2023-07-05T23:45:16.310Z,4.43
2023-07-05T23:47:44.794Z,3.03
2023-07-05T23:50:13.335Z,6.70
2023-07-05T23:52:43.151Z,4.33
2023-07-05T23:55:11.672Z,2.97
2023-07-05T23:57:40.009Z,5.77
